• Join FlightAware (Why Join?)
  • Login
  • US Flag 
04:38AM EST


 

Airport Tracker/Info


-or-


 

Live Flight TrackerFlight Track Log ✈ SWA378 ✈ 17-May-2013 ✈ KLAX - KATL

Flight Track Log - Related Links

Times and Time Zones

All times are in EDT time to prevent confusion due to time zone crossing. See the SWA378 flight status page for this flight to view local times or setup timezone preferences in your user account.

Time Position Orientation Groundspeed Altitude Reporting Facility
EDT Latitude Longitude Course Direction KTS MPH feet Rate Location/Type
01:26PM 33.8997 -118.5383 222° Southwest 258 297 5,100  Level Los Angeles Center
01:27PM 33.8247 -118.5283 174° South 282 325 8,100 2,940 Climbing Los Angeles Center
01:28PM 33.7439 -118.5256 178° South 295 339 11,200 3,000 Climbing Los Angeles Center
01:29PM 33.6544 -118.4575 148° Southeast 359 413 14,300 2,700 Climbing Los Angeles Center
01:30PM 33.6003 -118.3561 123° Southeast 375 432 16,800 2,400 Climbing Los Angeles Center
01:31PM 33.6022 -118.2286 89° East 395 455 19,300 2,280 Climbing Los Angeles Center
01:32PM 33.6050 -118.0658 89° East 412 474 21,600 2,280 Climbing Los Angeles Center
01:33PM 33.6081 -117.9203 89° East 436 502 24,100 2,160 Climbing Los Angeles Center
01:34PM 33.6106 -117.7764 89° East 435 501 26,100 1,740 Climbing Los Angeles Center
01:35PM 33.6133 -117.6269 89° East 446 513 27,700 1,500 Climbing Los Angeles Center
01:37PM 33.6150 -117.4728 89° East 463 533 29,200 1,200 Climbing Los Angeles Center
01:38PM 33.6181 -117.3144 89° East 475 547 30,300 1,260 Climbing Los Angeles Center
01:39PM 33.6203 -117.1175 89° East 492 566 31,900 1,740 Climbing Los Angeles Center
01:40PM 33.6222 -116.9536 89° East 494 568 33,900 1,560 Climbing Los Angeles Center
01:41PM 33.6242 -116.7972 89° East 483 556 35,200 1,140 Climbing Los Angeles Center
01:42PM 33.6475 -116.6386 80° East 485 558 36,300 780 Climbing Los Angeles Center
01:43PM 33.6758 -116.4789 78° East 488 562 36,900 300 Climbing Los Angeles Center
01:44PM 33.7092 -116.2864 78° East 490 564 37,000  Climbing Los Angeles Center
01:45PM 33.7369 -116.1275 78° East 485 558 37,000  Level Los Angeles Center
01:46PM 33.7617 -115.9689 79° East 483 556 37,000  Level Los Angeles Center
01:47PM 33.7875 -115.8100 79° East 483 556 37,000  Level Los Angeles Center
01:48PM 33.8119 -115.6492 80° East 488 562 37,000  Level Los Angeles Center
01:49PM 33.8353 -115.4872 80° East 490 564 37,000  Level Los Angeles Center
01:50PM 33.8642 -115.2964 80° East 485 558 37,000  Level Los Angeles Center
01:51PM 33.8869 -115.1369 80° East 484 557 37,000  Level Los Angeles Center
01:52PM 33.9111 -114.9772 80° East 486 559 37,000  Level Los Angeles Center
01:53PM 33.9375 -114.8150 79° East 492 566 37,000  Level Los Angeles Center
01:54PM 33.9611 -114.6550 80° East 489 563 37,000  Level Los Angeles Center
01:55PM 33.9844 -114.4972 80° East 481 554 37,000  Level Los Angeles Center
01:56PM 34.0106 -114.3078 81° East 479 551 37,000  Level Los Angeles Center
01:57PM 34.0344 -114.1494 80° East 480 552 37,000  Level Los Angeles Center
01:58PM 34.0564 -113.9939 80° East 473 544 37,000  Level Los Angeles Center
01:59PM 34.0775 -113.8375 81° East 473 544 37,000  Level Los Angeles Center
02:00PM 34.0992 -113.6808 80° East 474 545 37,000  Level Los Angeles Center
02:01PM 34.1244 -113.5031 80° East 482 555 37,000  Level Los Angeles Center
02:03PM 34.1431 -113.3506 82° East  Level FlightAware Approximate
02:04PM 34.1692 -113.1639 82° East 472 543 37,000  Level Albuquerque Center
02:05PM 34.1892 -113.0061 81° East 473 544 37,000  Level Albuquerque Center
02:06PM 34.2094 -112.8489 81° East 475 547 37,000  Level Albuquerque Center
02:07PM 34.2342 -112.6608 81° East 472 543 37,000  Level Albuquerque Center
02:08PM 34.2558 -112.5033 81° East 473 544 37,000  Level Albuquerque Center
02:09PM 34.2764 -112.3469 81° East 472 543 37,000  Level Albuquerque Center
02:10PM 34.2950 -112.1914 82° East 468 539 37,000  Level Albuquerque Center
02:11PM 34.3136 -112.0361 82° East 465 535 37,000  Level Albuquerque Center
02:12PM 34.3336 -111.8822 81° East 462 532 37,000  Level Albuquerque Center
02:13PM 34.3522 -111.7286 82° East 459 528 37,000  Level Albuquerque Center
02:14PM 34.3708 -111.5736 82° East 461 531 37,000  Level Albuquerque Center
02:15PM 34.3925 -111.3864 82° East 465 535 37,000  Level Albuquerque Center
02:16PM 34.4108 -111.2292 82° East 469 540 37,000  Level Albuquerque Center
02:17PM 34.4297 -111.0753 81° East 464 534 37,000  Level Albuquerque Center
02:18PM 34.4472 -110.9219 82° East 462 532 37,000  Level Albuquerque Center
02:19PM 34.4636 -110.7675 83° East 462 532 37,000  Level Albuquerque Center
02:20PM 34.4825 -110.6147 81° East 460 529 37,000  Level Albuquerque Center
02:21PM 34.5008 -110.4619 82° East 459 528 37,000  Level Albuquerque Center
02:22PM 34.5178 -110.2903 83° East 466 536 37,000  Level Albuquerque Center
02:23PM 34.5364 -110.1167 83° East 466 536 37,000  Level Albuquerque Center
02:24PM 34.5525 -109.9678 82° East 466 536 37,000  Level Albuquerque Center
02:25PM 34.5711 -109.7925 83° East 468 539 37,000  Level Albuquerque Center
02:26PM 34.5867 -109.6439 83° East 467 537 37,000  Level Albuquerque Center
02:27PM 34.6047 -109.4675 83° East 470 541 37,000  Level Albuquerque Center
02:28PM 34.6200 -109.3172 83° East 471 542 37,000  Level Albuquerque Center
02:29PM 34.6367 -109.1419 83° East 470 541 37,000  Level Albuquerque Center
02:30PM 34.6519 -108.9928 83° East 467 537 37,000  Level Albuquerque Center
02:31PM 34.6669 -108.8444 83° East 465 535 37,000  Level Albuquerque Center
02:32PM 34.6839 -108.6700 83° East 466 536 37,000  Level Albuquerque Center
02:33PM 34.6981 -108.5214 83° East 466 536 37,000  Level Albuquerque Center
02:34PM 34.7131 -108.3544 84° East 465 535 37,000  Level Albuquerque Center
02:36PM 34.7278 -108.1983 83° East 465 535 37,000  Level Albuquerque Center
02:37PM 34.7447 -108.0233 83° East 467 537 37,000  Level Albuquerque Center
02:38PM 34.7564 -107.8858 84° East 465 535 37,000  Level Albuquerque Center
02:39PM 34.7697 -107.7317 84° East 461 531 37,000  Level Albuquerque Center
02:40PM 34.7853 -107.5478 84° East 458 527 37,000  Level Albuquerque Center
02:41PM 34.7975 -107.3947 84° East 456 525 37,000  Level Albuquerque Center
02:42PM 34.8103 -107.2408 84° East 459 528 37,000  Level Albuquerque Center
02:43PM 34.8222 -107.0883 85° East 458 527 37,000  Level Albuquerque Center
02:44PM 34.8344 -106.9350 84° East 460 529 37,000  Level Albuquerque Center
02:45PM 34.8489 -106.7706 84° East 458 527 37,000  Level Albuquerque Center
02:46PM 34.8614 -106.6006 85° East 452 520 37,000  Level Albuquerque Center
02:47PM 34.8728 -106.4447 85° East 474 545 37,000  Level Albuquerque Center
02:48PM 34.8847 -106.2903 85° East 464 534 37,000  Level Albuquerque Center
02:49PM 34.8958 -106.1356 85° East 461 531 37,000  Level Albuquerque Center
02:50PM 34.9067 -105.9792 85° East 463 533 37,000  Level Albuquerque Center
02:51PM 34.9189 -105.8097 85° East 462 532 37,000  Level Albuquerque Center
02:52PM 34.9317 -105.6250 85° East 465 535 37,000  Level Albuquerque Center
02:53PM 34.9431 -105.4681 85° East 463 533 37,000  Level Albuquerque Center
02:54PM 34.9533 -105.3097 85° East 465 535 37,000  Level Albuquerque Center
02:55PM 34.9642 -105.1531 85° East 462 532 37,000  Level Albuquerque Center
02:56PM 34.9739 -104.9947 86° East 464 534 37,000  Level Albuquerque Center
02:57PM 34.9853 -104.8375 85° East 464 534 37,000  Level Albuquerque Center
02:58PM 34.9958 -104.6786 85° East 466 536 37,000  Level Albuquerque Center
02:59PM 35.0061 -104.4950 86° East 464 534 37,000  Level Albuquerque Center
03:00PM 35.0158 -104.3358 86° East 469 540 37,000  Level Albuquerque Center
03:01PM 35.0242 -104.1781 86° East 471 542 37,000  Level Albuquerque Center
03:02PM 35.0347 -104.0214 85° East 468 539 37,000  Level Albuquerque Center
03:03PM 35.0439 -103.8644 86° East 465 535 37,000  Level Albuquerque Center
03:04PM 35.0542 -103.6808 86° East 464 534 37,000  Level Albuquerque Center
03:05PM 35.0625 -103.5217 86° East 466 536 37,000  Level Albuquerque Center
03:06PM 35.0706 -103.3622 86° East 467 537 37,000  Level Albuquerque Center
03:08PM 35.0792 -103.2022 86° East 469 540 37,000  Level Albuquerque Center
03:09PM 35.0869 -103.0425 87° East 469 540 37,000  Level Albuquerque Center
03:10PM 35.0936 -102.8808 87° East 471 542 37,000  Level Albuquerque Center
03:11PM 35.1014 -102.7217 87° East 472 543 37,000  Level Albuquerque Center
03:12PM 35.1075 -102.5614 87° East 474 545 37,000  Level Albuquerque Center
03:13PM 35.1169 -102.3697 86° East 472 543 37,000  Level Albuquerque Center
03:14PM 35.1228 -102.2111 87° East 471 542 37,000  Level Albuquerque Center
03:15PM 35.1289 -102.0519 87° East 471 542 37,000  Level Albuquerque Center
03:16PM 35.1381 -101.8869 86° East 472 543 37,000  Level Albuquerque Center
03:17PM 35.1428 -101.7253 88° East 472 543 37,000  Level Albuquerque Center
03:18PM 35.1508 -101.5731 86° East 470 541 37,000  Level Albuquerque Center
03:19PM 35.1569 -101.3806 88° East 471 542 37,000  Level Albuquerque Center
03:20PM 35.1608 -101.2353 88° East 472 543 37,000  Level Albuquerque Center
03:21PM 35.1658 -101.0753 88° East 473 544 37,000  Level Albuquerque Center
03:22PM 35.1722 -100.8844 88° East 471 542 37,000  Level Albuquerque Center
03:23PM 35.1772 -100.7258 88° East 470 541 37,000  Level Albuquerque Center
03:24PM 35.1819 -100.5664 88° East 470 541 37,000  Level Albuquerque Center
03:25PM 35.1878 -100.4217 87° East 468 539 37,000  Level Albuquerque Center
03:26PM 35.1897 -100.2297 89° East 470 541 37,000  Level Albuquerque Center
03:27PM 35.1939 -100.0697 88° East 470 541 37,000  Level Albuquerque Center
03:28PM 35.1986 -99.9117 88° East 468 539 37,000  Level Albuquerque Center
03:29PM 35.2008 -99.7525 89° East 469 540 37,000  Level Albuquerque Center
03:30PM 35.2039 -99.5922 89° East 471 542 37,000  Level Albuquerque Center
03:31PM 35.2072 -99.4339 88° East 470 541 37,000  Level Albuquerque Center
03:32PM 35.2089 -99.2761 89° East 465 535 37,000  Level Fort Worth Center
03:33PM 35.2111 -99.1136 89° East 465 535 37,000  Level Fort Worth Center
03:34PM 35.2153 -98.9533 88° East 465 535 37,000  Level Fort Worth Center
03:35PM 35.2172 -98.7908 89° East 465 535 37,000  Level Fort Worth Center
03:36PM 35.2189 -98.6308 89° East 465 535 37,000  Level Fort Worth Center
03:37PM 35.2203 -98.4758 89° East 471 542 37,000  Level Fort Worth Center
03:38PM 35.2214 -98.3158 89° East 466 536 37,000  Level Fort Worth Center
03:39PM 35.2225 -98.1556 89° East 466 536 37,000  Level Fort Worth Center
03:40PM 35.2233 -97.9931 90° East 466 536 37,000  Level Fort Worth Center
03:41PM 35.2242 -97.8353 90° East 466 536 37,000  Level Fort Worth Center
03:42PM 35.2244 -97.6753 90° East 466 536 37,000  Level Fort Worth Center
03:43PM 35.2228 -97.5178 91° East 461 531 37,000  Level Fort Worth Center
03:44PM 35.2269 -97.3703 88° East 461 531 37,000  Level Fort Worth Center
03:45PM 35.2289 -97.2078 89° East 468 539 37,000 180 Level Fort Worth Center
03:46PM 35.2242 -97.0503 92° East 473 544 37,400 480 Climbing Fort Worth Center
03:47PM 35.2258 -96.8825 89° East 473 544 38,000 780 Climbing Fort Worth Center
03:48PM 35.2250 -96.7197 90° East 479 551 39,000 480 Climbing Fort Worth Center
03:49PM 35.2239 -96.5544 90° East 479 551 39,000  Level Fort Worth Center
03:50PM 35.2228 -96.3969 90° East 479 551 39,000  Level Fort Worth Center
03:51PM 35.2214 -96.2319 91° East 479 551 39,000  Level Fort Worth Center
03:52PM 35.2197 -96.0717 91° East 474 545 39,000  Level Fort Worth Center
03:53PM 35.2200 -95.9092 90° East 474 545 39,000  Level Fort Worth Center
03:54PM 35.2178 -95.7389 91° East 469 540 39,000  Level Fort Worth Center
03:56PM 35.2158 -95.4578 90° East 459 528 39,000  Level Memphis Center
03:57PM 35.2119 -95.3000 92° East 459 528 39,000  Level Memphis Center
03:58PM 35.2097 -95.1397 91° East 464 534 39,000  Level Memphis Center
03:59PM 35.2075 -94.9822 91° East 464 534 39,000  Level Memphis Center
04:00PM 35.2028 -94.8244 92° East 459 528 39,000  Level Memphis Center
04:01PM 35.1961 -94.6564 93° East 470 541 39,000  Level Memphis Center
04:02PM 35.1972 -94.5014 89° East 475 547 39,000  Level Memphis Center
04:03PM 35.1919 -94.3461 92° East 465 535 39,000  Level Memphis Center
04:04PM 35.1906 -94.1911 91° East 459 528 39,000  Level Memphis Center
04:05PM 35.1867 -94.0386 92° East 459 528 39,000  Level Memphis Center
04:06PM 35.1828 -93.8858 92° East 459 528 39,000  Level Memphis Center
04:07PM 35.1786 -93.7333 92° East 454 522 39,000  Level Memphis Center
04:08PM 35.1744 -93.5808 92° East 449 517 39,000  Level Memphis Center
04:09PM 35.1697 -93.4306 92° East 449 517 39,000  Level Memphis Center
04:10PM 35.1672 -93.2833 91° East 435 501 39,000  Level Memphis Center
04:11PM 35.1642 -93.1358 91° East 430 495 39,000  Level Memphis Center
04:12PM 35.1553 -92.9756 94° East 448 516 39,000  Level Memphis Center
04:13PM 35.1519 -92.8281 92° East 448 516 39,000  Level Memphis Center
04:14PM 35.1444 -92.6706 93° East 448 516 39,000  Level Memphis Center
04:15PM 35.1369 -92.5181 93° East 448 516 39,000  Level Memphis Center
04:16PM 35.1311 -92.3653 93° East 448 516 39,000  Level Memphis Center
04:17PM 35.1272 -92.2156 92° East 448 516 39,000  Level Memphis Center
04:18PM 35.1189 -92.0631 94° East 448 516 39,000  Level Memphis Center
04:19PM 35.1125 -91.9106 93° East 443 510 39,000  Level Memphis Center
04:20PM 35.1058 -91.7556 93° East 443 510 39,000  Level Memphis Center
04:21PM 35.0992 -91.6033 93° East 443 510 39,000  Level Memphis Center
04:22PM 35.0944 -91.4508 92° East 443 510 39,000  Level Memphis Center
04:23PM 35.0872 -91.3011 93° East 443 510 39,000  Level Memphis Center
04:24PM 35.0778 -91.1514 94° East 443 510 39,000  Level Memphis Center
04:25PM 35.0725 -90.9989 92° East 443 510 39,000  Level Memphis Center
04:26PM 35.0647 -90.8442 93° East 443 510 39,000  Level Memphis Center
04:27PM 35.0569 -90.6894 93° East 448 516 39,000  Level Memphis Center
04:28PM 35.0489 -90.5397 94° East 448 516 39,000  Level Memphis Center
04:29PM 35.0386 -90.3850 95° East 448 516 39,000  Level Memphis Center
04:30PM 35.0322 -90.2506 93° East 448 516 39,000  Level Memphis Center
04:31PM 35.0239 -90.0983 94° East 443 510 39,000  Level Memphis Center
04:32PM 35.0150 -89.9464 94° East 443 510 39,000  Level Memphis Center
04:33PM 34.9914 -89.7767 100° East 449 517 39,000  Level Memphis Center
04:34PM 34.9675 -89.6147 100° East 471 542 39,000  Level Memphis Center
04:35PM 34.9394 -89.4653 103° East 466 536 39,000  Level Memphis Center
04:36PM 34.9172 -89.3111 100° East 466 536 39,000  Level Memphis Center
04:37PM 34.8931 -89.1619 101° East 456 525 39,000  Level Memphis Center
04:38PM 34.8728 -89.0281 100° East 450 518 39,000  Level Memphis Center
04:39PM 34.8503 -88.8767 100° East 450 518 39,000  Level Memphis Center
04:40PM 34.8275 -88.7303 101° East 444 511 39,000  Level Memphis Center
04:41PM 34.8047 -88.5792 100° East 449 517 39,000  Level Memphis Center
04:42PM 34.7797 -88.4406 102° East 442 509 39,000  Level Memphis Center
04:43PM 34.7564 -88.2969 101° East 435 501 39,000  Level Memphis Center
04:44PM 34.7328 -88.1283 100° East 442 509 39,000  Level Memphis Center
04:45PM 34.7092 -87.9822 101° East 450 518 39,000  Level Memphis Center
04:46PM 34.6856 -87.8392 101° East 445 512 39,000  Level Memphis Center
04:48PM 34.6486 -87.5964 100° East 462 532 39,000  Level Atlanta Center
04:49PM 34.6236 -87.4439 101° East 462 532 39,000 -60 Level Atlanta Center
04:50PM 34.5944 -87.2914 103° East 462 532 38,900 -600 Descending Atlanta Center
04:51PM 34.5650 -87.1389 103° East 457 526 37,900 -960 Descending Atlanta Center
04:52PM 34.5336 -86.9764 103° East 452 520 37,000 -960 Descending Atlanta Center
04:53PM 34.5036 -86.8242 103° East 452 520 36,000 -960 Descending Atlanta Center
04:54PM 34.4736 -86.6719 103° East 452 520 35,100 -960 Descending Atlanta Center
04:55PM 34.4433 -86.5197 104° East 458 527 34,100 -960 Descending Atlanta Center
04:56PM 34.4150 -86.3653 102° East 458 527 33,200 -1,500 Descending Atlanta Center
04:57PM 34.3844 -86.2111 103° East 463 533 31,200 -1,260 Descending Atlanta Center
04:58PM 34.3539 -86.0567 103° East 463 533 30,700 -1,380 Descending Atlanta Center
04:59PM 34.3269 -85.9078 102° East 463 533 28,500 -2,160 Descending Atlanta Center
05:00PM 34.2994 -85.7839 105° East 442 509 26,400 -2,160 Descending Atlanta Center
05:01PM 34.2722 -85.6400 103° East 435 501 24,200 -2,220 Descending Atlanta Center
05:02PM 34.2428 -85.4989 104° East 435 501 22,000 -2,160 Descending Atlanta Center
05:03PM 34.2150 -85.3650 104° East 416 479 19,900 -2,100 Descending Atlanta Center
05:04PM 34.1853 -85.2217 104° East 411 473 17,900 -2,100 Descending Atlanta Center
05:05PM 34.1486 -85.0981 110° East 398 458 15,700 -1,980 Descending Atlanta Center
05:06PM 34.0764 -85.0069 134° Southeast 372 428 14,000 -960 Descending Atlanta Center
05:07PM 34.0103 -84.9208 133° Southeast 365 420 13,800 -600 Descending Atlanta Center
05:08PM 33.9419 -84.8375 135° Southeast 353 406 12,800 -900 Descending Atlanta Center
05:09PM 33.8778 -84.7569 134° Southeast 341 392 12,000 -660 Descending Atlanta Center
05:09PM 33.8667 -84.7333 120° Southeast 333 383 12,000  Level Atlanta TRACON
05:10PM 33.8000 -84.6500 134° Southeast 333 383 12,000 -120 Level Atlanta TRACON
05:11PM 33.7500 -84.5833 132° Southeast 279 321 11,800 -480 Descending Atlanta TRACON
05:12PM 33.7333 -84.5000 104° East 272 313 11,100 -1,080 Descending Atlanta TRACON
05:13PM 33.7333 -84.4000 90° East 274 315 9,800 -1,260 Descending Atlanta TRACON
05:14PM 33.7333 -84.3167 90° East 257 296 8,600 -1,200 Descending Atlanta TRACON
05:15PM 33.7333 -84.2333 90° East 245 282 7,500 -1,440 Descending Atlanta TRACON
05:16PM 33.7167 -84.1667 107° East 240 276 5,800 -1,380 Descending Atlanta TRACON
05:17PM 33.6667 -84.1833 196° South 215 247 4,900 -1,080 Descending Atlanta TRACON
05:18PM 33.6500 -84.2500 253° West 184 212 3,800 -1,200 Descending Atlanta TRACON
05:19PM 33.6500 -84.3167 270° West 180 207 2,600 -1,020 Descending Atlanta TRACON
05:20PM 33.6500 -84.3667 270° West 147 169 1,800 -840 Descending Atlanta TRACON
05:22PM 33.6333 -84.4167 North  Level FlightAware Approximate
05:29PM 33.6367 -84.4279 North  Level Estimated
05:30PM 33.6367 -84.4279 North  Level Estimated